sensor_id;sensor_type;location;lat;lon;timestamp;P1;durP1;ratioP1;P2;durP2;ratioP2
57778;SDS011;43608;49.486;9.640;2024-02-21T00:00:11;7.90;;;4.20;;
57778;SDS011;43608;49.486;9.640;2024-02-21T00:00:42;9.00;;;4.45;;
57778;SDS011;43608;49.486;9.640;2024-02-21T00:01:16;9.82;;;4.40;;
57778;SDS011;43608;49.486;9.640;2024-02-21T00:01:47;9.40;;;4.47;;
57778;SDS011;43608;49.486;9.640;2024-02-21T00:02:17;7.38;;;4.05;;
57778;SDS011;43608;49.486;9.640;2024-02-21T00:02:47;8.70;;;4.60;;
57778;SDS011;43608;49.486;9.640;2024-02-21T00:03:18;8.00;;;4.20;;
57778;SDS011;43608;49.486;9.640;2024-02-21T00:03:48;10.13;;;4.15;;
57778;SDS011;43608;49.486;9.640;2024-02-21T00:04:19;9.15;;;4.53;;
57778;SDS011;43608;49.486;9.640;2024-02-21T00:04:49;8.32;;;4.40;;
57778;SDS011;43608;49.486;9.640;2024-02-21T00:05:19;9.82;;;4.22;;
57778;SDS011;43608;49.486;9.640;2024-02-21T00:05:50;8.95;;;3.90;;
57778;SDS011;43608;49.486;9.640;2024-02-21T00:06:20;8.57;;;4.20;;
57778;SDS011;43608;49.486;9.640;2024-02-21T00:06:50;7.65;;;4.10;;
57778;SDS011;43608;49.486;9.640;2024-02-21T00:07:21;9.55;;;4.20;;
57778;SDS011;43608;49.486;9.640;2024-02-21T00:07:51;8.43;;;4.22;;
57778;SDS011;43608;49.486;9.640;2024-02-21T00:08:21;7.68;;;4.18;;
57778;SDS011;43608;49.486;9.640;2024-02-21T00:08:52;7.47;;;3.78;;
57778;SDS011;43608;49.486;9.640;2024-02-21T00:09:22;10.38;;;4.07;;
57778;SDS011;43608;49.486;9.640;2024-02-21T00:09:52;8.93;;;3.97;;
57778;SDS011;43608;49.486;9.640;2024-02-21T00:10:23;8.73;;;4.05;;
57778;SDS011;43608;49.486;9.640;2024-02-21T00:10:53;10.05;;;4.15;;
57778;SDS011;43608;49.486;9.640;2024-02-21T00:11:24;10.27;;;4.50;;
57778;SDS011;43608;49.486;9.640;2024-02-21T00:11:54;7.88;;;4.10;;
57778;SDS011;43608;49.486;9.640;2024-02-21T00:12:24;8.82;;;3.97;;
57778;SDS011;43608;49.486;9.640;2024-02-21T00:12:55;8.10;;;4.00;;
57778;SDS011;43608;49.486;9.640;2024-02-21T00:13:25;8.23;;;4.20;;
57778;SDS011;43608;49.486;9.640;2024-02-21T00:13:56;6.90;;;4.13;;
57778;SDS011;43608;49.486;9.640;2024-02-21T00:14:26;8.85;;;4.03;;
57778;SDS011;43608;49.486;9.640;2024-02-21T00:14:56;9.32;;;4.07;;
57778;SDS011;43608;49.486;9.640;2024-02-21T00:15:27;6.47;;;3.75;;
57778;SDS011;43608;49.486;9.640;2024-02-21T00:15:57;7.80;;;3.67;;
57778;SDS011;43608;49.486;9.640;2024-02-21T00:16:27;7.03;;;4.07;;
57778;SDS011;43608;49.486;9.640;2024-02-21T00:16:58;5.35;;;3.70;;
57778;SDS011;43608;49.486;9.640;2024-02-21T00:17:29;6.85;;;3.83;;
57778;SDS011;43608;49.486;9.640;2024-02-21T00:17:59;6.70;;;3.92;;
57778;SDS011;43608;49.486;9.640;2024-02-21T00:18:29;8.07;;;3.88;;
57778;SDS011;43608;49.486;9.640;2024-02-21T00:19:00;8.85;;;3.72;;
57778;SDS011;43608;49.486;9.640;2024-02-21T00:19:30;6.95;;;3.90;;
57778;SDS011;43608;49.486;9.640;2024-02-21T00:20:00;6.93;;;3.70;;
57778;SDS011;43608;49.486;9.640;2024-02-21T00:20:31;8.18;;;3.70;;
57778;SDS011;43608;49.486;9.640;2024-02-21T00:21:01;7.68;;;3.78;;
57778;SDS011;43608;49.486;9.640;2024-02-21T00:21:31;7.65;;;4.07;;
57778;SDS011;43608;49.486;9.640;2024-02-21T00:22:02;7.03;;;3.60;;
57778;SDS011;43608;49.486;9.640;2024-02-21T00:22:34;8.25;;;4.20;;
57778;SDS011;43608;49.486;9.640;2024-02-21T00:23:04;9.07;;;4.20;;
57778;SDS011;43608;49.486;9.640;2024-02-21T00:23:34;8.43;;;4.07;;
57778;SDS011;43608;49.486;9.640;2024-02-21T00:24:05;8.02;;;4.28;;
57778;SDS011;43608;49.486;9.640;2024-02-21T00:24:36;8.65;;;4.00;;
57778;SDS011;43608;49.486;9.640;2024-02-21T00:25:07;9.35;;;4.30;;
57778;SDS011;43608;49.486;9.640;2024-02-21T00:25:38;9.82;;;4.10;;
57778;SDS011;43608;49.486;9.640;2024-02-21T00:26:08;7.28;;;3.80;;
57778;SDS011;43608;49.486;9.640;2024-02-21T00:26:38;6.57;;;3.80;;
57778;SDS011;43608;49.486;9.640;2024-02-21T00:27:09;6.55;;;3.45;;
57778;SDS011;43608;49.486;9.640;2024-02-21T00:27:39;8.63;;;4.32;;
57778;SDS011;43608;49.486;9.640;2024-02-21T00:28:09;6.57;;;3.90;;
57778;SDS011;43608;49.486;9.640;2024-02-21T00:28:40;6.53;;;3.67;;
57778;SDS011;43608;49.486;9.640;2024-02-21T00:29:10;5.85;;;3.60;;
57778;SDS011;43608;49.486;9.640;2024-02-21T00:29:41;6.03;;;3.60;;
57778;SDS011;43608;49.486;9.640;2024-02-21T00:30:11;6.20;;;3.67;;
57778;SDS011;43608;49.486;9.640;2024-02-21T00:30:42;5.65;;;3.22;;
57778;SDS011;43608;49.486;9.640;2024-02-21T00:31:12;6.28;;;3.65;;
57778;SDS011;43608;49.486;9.640;2024-02-21T00:31:42;5.90;;;3.40;;
57778;SDS011;43608;49.486;9.640;2024-02-21T00:32:14;6.13;;;3.30;;
57778;SDS011;43608;49.486;9.640;2024-02-21T00:32:45;5.72;;;3.53;;
57778;SDS011;43608;49.486;9.640;2024-02-21T00:33:16;6.90;;;3.45;;
57778;SDS011;43608;49.486;9.640;2024-02-21T00:33:46;5.60;;;3.35;;
57778;SDS011;43608;49.486;9.640;2024-02-21T00:34:17;6.10;;;3.30;;
57778;SDS011;43608;49.486;9.640;2024-02-21T00:34:47;7.70;;;4.00;;
57778;SDS011;43608;49.486;9.640;2024-02-21T00:35:17;7.40;;;3.45;;
57778;SDS011;43608;49.486;9.640;2024-02-21T00:35:48;6.95;;;3.60;;
57778;SDS011;43608;49.486;9.640;2024-02-21T00:36:18;7.75;;;3.95;;
57778;SDS011;43608;49.486;9.640;2024-02-21T00:36:48;6.93;;;3.83;;
57778;SDS011;43608;49.486;9.640;2024-02-21T00:37:20;8.13;;;3.58;;
57778;SDS011;43608;49.486;9.640;2024-02-21T00:37:51;6.28;;;3.58;;
57778;SDS011;43608;49.486;9.640;2024-02-21T00:38:21;6.55;;;3.60;;
57778;SDS011;43608;49.486;9.640;2024-02-21T00:38:52;8.02;;;3.67;;
57778;SDS011;43608;49.486;9.640;2024-02-21T00:39:22;6.53;;;3.72;;
57778;SDS011;43608;49.486;9.640;2024-02-21T00:39:55;7.32;;;3.63;;
57778;SDS011;43608;49.486;9.640;2024-02-21T00:40:26;6.40;;;3.67;;
57778;SDS011;43608;49.486;9.640;2024-02-21T00:40:56;7.53;;;3.85;;
57778;SDS011;43608;49.486;9.640;2024-02-21T00:41:26;7.15;;;3.72;;
57778;SDS011;43608;49.486;9.640;2024-02-21T00:41:57;6.57;;;3.50;;
57778;SDS011;43608;49.486;9.640;2024-02-21T00:42:27;7.35;;;3.90;;
57778;SDS011;43608;49.486;9.640;2024-02-21T00:42:57;8.27;;;3.35;;
57778;SDS011;43608;49.486;9.640;2024-02-21T00:43:28;7.72;;;3.63;;
57778;SDS011;43608;49.486;9.640;2024-02-21T00:43:58;6.90;;;3.55;;
57778;SDS011;43608;49.486;9.640;2024-02-21T00:44:28;6.72;;;3.65;;
57778;SDS011;43608;49.486;9.640;2024-02-21T00:44:59;5.80;;;3.40;;
57778;SDS011;43608;49.486;9.640;2024-02-21T00:45:29;5.45;;;3.60;;
57778;SDS011;43608;49.486;9.640;2024-02-21T00:45:59;7.82;;;3.85;;
57778;SDS011;43608;49.486;9.640;2024-02-21T00:46:30;7.38;;;3.65;;
57778;SDS011;43608;49.486;9.640;2024-02-21T00:47:00;9.15;;;4.15;;
57778;SDS011;43608;49.486;9.640;2024-02-21T00:47:30;9.43;;;3.80;;
57778;SDS011;43608;49.486;9.640;2024-02-21T00:48:01;7.63;;;3.80;;
57778;SDS011;43608;49.486;9.640;2024-02-21T00:48:31;6.95;;;3.75;;
57778;SDS011;43608;49.486;9.640;2024-02-21T00:49:01;7.65;;;4.00;;
57778;SDS011;43608;49.486;9.640;2024-02-21T00:49:32;6.85;;;3.78;;
57778;SDS011;43608;49.486;9.640;2024-02-21T00:50:02;8.15;;;3.72;;
57778;SDS011;43608;49.486;9.640;2024-02-21T00:50:33;8.40;;;3.60;;
57778;SDS011;43608;49.486;9.640;2024-02-21T00:51:03;8.02;;;3.88;;
57778;SDS011;43608;49.486;9.640;2024-02-21T00:51:34;7.88;;;3.75;;
57778;SDS011;43608;49.486;9.640;2024-02-21T00:52:04;10.35;;;4.18;;
57778;SDS011;43608;49.486;9.640;2024-02-21T00:52:34;7.43;;;4.00;;
57778;SDS011;43608;49.486;9.640;2024-02-21T00:53:05;7.07;;;3.67;;
57778;SDS011;43608;49.486;9.640;2024-02-21T00:53:35;7.50;;;3.60;;
57778;SDS011;43608;49.486;9.640;2024-02-21T00:54:08;9.07;;;3.95;;
57778;SDS011;43608;49.486;9.640;2024-02-21T00:54:38;5.95;;;3.58;;
57778;SDS011;43608;49.486;9.640;2024-02-21T00:55:08;8.10;;;3.65;;
57778;SDS011;43608;49.486;9.640;2024-02-21T00:55:39;7.97;;;3.78;;
57778;SDS011;43608;49.486;9.640;2024-02-21T00:56:10;5.78;;;3.50;;
57778;SDS011;43608;49.486;9.640;2024-02-21T00:56:40;7.72;;;3.75;;
57778;SDS011;43608;49.486;9.640;2024-02-21T00:57:11;6.88;;;3.45;;
57778;SDS011;43608;49.486;9.640;2024-02-21T00:57:41;7.03;;;3.80;;
57778;SDS011;43608;49.486;9.640;2024-02-21T00:58:11;8.27;;;3.88;;
57778;SDS011;43608;49.486;9.640;2024-02-21T00:58:42;7.45;;;3.90;;
57778;SDS011;43608;49.486;9.640;2024-02-21T00:59:12;6.88;;;3.70;;
57778;SDS011;43608;49.486;9.640;2024-02-21T00:59:42;7.45;;;4.35;;
57778;SDS011;43608;49.486;9.640;2024-02-21T01:00:13;8.38;;;3.58;;
57778;SDS011;43608;49.486;9.640;2024-02-21T01:00:44;8.32;;;3.75;;
57778;SDS011;43608;49.486;9.640;2024-02-21T01:01:20;8.32;;;3.97;;
57778;SDS011;43608;49.486;9.640;2024-02-21T01:01:52;7.50;;;4.10;;
57778;SDS011;43608;49.486;9.640;2024-02-21T01:02:22;7.55;;;4.18;;
57778;SDS011;43608;49.486;9.640;2024-02-21T01:02:52;5.57;;;3.40;;
57778;SDS011;43608;49.486;9.640;2024-02-21T01:03:23;6.20;;;3.42;;
57778;SDS011;43608;49.486;9.640;2024-02-21T01:03:53;7.68;;;4.03;;
57778;SDS011;43608;49.486;9.640;2024-02-21T01:04:23;6.57;;;3.75;;
57778;SDS011;43608;49.486;9.640;2024-02-21T01:04:54;7.28;;;3.47;;
57778;SDS011;43608;49.486;9.640;2024-02-21T01:05:25;7.68;;;3.58;;
57778;SDS011;43608;49.486;9.640;2024-02-21T01:05:57;6.43;;;3.50;;
57778;SDS011;43608;49.486;9.640;2024-02-21T01:06:27;8.27;;;3.60;;
57778;SDS011;43608;49.486;9.640;2024-02-21T01:06:58;7.18;;;3.60;;
57778;SDS011;43608;49.486;9.640;2024-02-21T01:07:28;8.10;;;3.83;;
57778;SDS011;43608;49.486;9.640;2024-02-21T01:07:58;7.13;;;3.22;;
57778;SDS011;43608;49.486;9.640;2024-02-21T01:08:29;7.80;;;3.60;;
57778;SDS011;43608;49.486;9.640;2024-02-21T01:08:59;7.18;;;3.63;;
57778;SDS011;43608;49.486;9.640;2024-02-21T01:09:30;6.75;;;3.45;;
57778;SDS011;43608;49.486;9.640;2024-02-21T01:10:00;7.90;;;3.85;;
57778;SDS011;43608;49.486;9.640;2024-02-21T01:10:30;8.75;;;3.92;;
57778;SDS011;43608;49.486;9.640;2024-02-21T01:11:01;9.30;;;4.18;;
57778;SDS011;43608;49.486;9.640;2024-02-21T01:11:31;9.10;;;3.97;;
57778;SDS011;43608;49.486;9.640;2024-02-21T01:12:02;6.70;;;3.40;;
57778;SDS011;43608;49.486;9.640;2024-02-21T01:12:32;6.57;;;3.30;;
57778;SDS011;43608;49.486;9.640;2024-02-21T01:13:02;7.05;;;3.35;;
57778;SDS011;43608;49.486;9.640;2024-02-21T01:13:33;5.95;;;3.50;;
57778;SDS011;43608;49.486;9.640;2024-02-21T01:14:03;6.97;;;3.65;;
57778;SDS011;43608;49.486;9.640;2024-02-21T01:14:34;6.22;;;3.58;;
57778;SDS011;43608;49.486;9.640;2024-02-21T01:15:04;6.25;;;3.40;;
57778;SDS011;43608;49.486;9.640;2024-02-21T01:15:35;7.70;;;3.65;;
57778;SDS011;43608;49.486;9.640;2024-02-21T01:16:05;5.75;;;3.30;;
57778;SDS011;43608;49.486;9.640;2024-02-21T01:16:36;6.68;;;3.42;;
57778;SDS011;43608;49.486;9.640;2024-02-21T01:17:06;6.75;;;3.17;;
57778;SDS011;43608;49.486;9.640;2024-02-21T01:17:37;6.68;;;3.20;;
57778;SDS011;43608;49.486;9.640;2024-02-21T01:18:07;7.60;;;3.85;;
57778;SDS011;43608;49.486;9.640;2024-02-21T01:18:38;8.70;;;3.67;;
57778;SDS011;43608;49.486;9.640;2024-02-21T01:19:11;9.38;;;3.70;;
57778;SDS011;43608;49.486;9.640;2024-02-21T01:19:42;7.82;;;3.92;;
57778;SDS011;43608;49.486;9.640;2024-02-21T01:20:12;7.25;;;3.50;;
57778;SDS011;43608;49.486;9.640;2024-02-21T01:20:42;8.25;;;3.75;;
57778;SDS011;43608;49.486;9.640;2024-02-21T01:21:13;7.32;;;3.50;;
57778;SDS011;43608;49.486;9.640;2024-02-21T01:21:43;6.55;;;3.45;;
57778;SDS011;43608;49.486;9.640;2024-02-21T01:22:14;6.97;;;3.42;;
57778;SDS011;43608;49.486;9.640;2024-02-21T01:22:45;5.88;;;3.50;;
57778;SDS011;43608;49.486;9.640;2024-02-21T01:23:16;5.78;;;3.50;;
57778;SDS011;43608;49.486;9.640;2024-02-21T01:23:46;5.85;;;3.17;;
57778;SDS011;43608;49.486;9.640;2024-02-21T01:24:16;6.53;;;3.22;;
57778;SDS011;43608;49.486;9.640;2024-02-21T01:24:47;5.75;;;3.30;;
57778;SDS011;43608;49.486;9.640;2024-02-21T01:25:17;6.63;;;3.38;;
57778;SDS011;43608;49.486;9.640;2024-02-21T01:25:47;5.85;;;3.30;;
57778;SDS011;43608;49.486;9.640;2024-02-21T01:26:18;6.97;;;3.40;;
57778;SDS011;43608;49.486;9.640;2024-02-21T01:26:48;5.88;;;3.35;;
57778;SDS011;43608;49.486;9.640;2024-02-21T01:27:19;5.72;;;3.45;;
57778;SDS011;43608;49.486;9.640;2024-02-21T01:27:49;5.30;;;3.20;;
57778;SDS011;43608;49.486;9.640;2024-02-21T01:28:19;6.38;;;3.10;;
57778;SDS011;43608;49.486;9.640;2024-02-21T01:28:50;6.10;;;3.30;;
57778;SDS011;43608;49.486;9.640;2024-02-21T01:29:20;5.38;;;3.00;;
57778;SDS011;43608;49.486;9.640;2024-02-21T01:29:51;5.05;;;3.20;;
57778;SDS011;43608;49.486;9.640;2024-02-21T01:30:21;5.32;;;2.92;;
57778;SDS011;43608;49.486;9.640;2024-02-21T01:30:51;5.80;;;3.00;;
57778;SDS011;43608;49.486;9.640;2024-02-21T01:31:22;6.93;;;3.38;;
57778;SDS011;43608;49.486;9.640;2024-02-21T01:31:52;6.22;;;3.08;;
57778;SDS011;43608;49.486;9.640;2024-02-21T01:32:22;6.57;;;3.28;;
57778;SDS011;43608;49.486;9.640;2024-02-21T01:32:54;5.90;;;3.00;;
57778;SDS011;43608;49.486;9.640;2024-02-21T01:33:24;6.28;;;3.28;;
57778;SDS011;43608;49.486;9.640;2024-02-21T01:33:55;6.65;;;3.55;;
57778;SDS011;43608;49.486;9.640;2024-02-21T01:34:25;8.02;;;3.60;;
57778;SDS011;43608;49.486;9.640;2024-02-21T01:34:56;8.15;;;3.33;;
57778;SDS011;43608;49.486;9.640;2024-02-21T01:35:27;5.82;;;2.97;;
57778;SDS011;43608;49.486;9.640;2024-02-21T01:35:57;5.45;;;3.15;;
57778;SDS011;43608;49.486;9.640;2024-02-21T01:36:27;4.72;;;2.70;;
57778;SDS011;43608;49.486;9.640;2024-02-21T01:36:58;6.25;;;3.00;;
57778;SDS011;43608;49.486;9.640;2024-02-21T01:37:29;5.95;;;3.17;;
57778;SDS011;43608;49.486;9.640;2024-02-21T01:37:59;5.68;;;3.05;;
57778;SDS011;43608;49.486;9.640;2024-02-21T01:38:30;6.00;;;3.20;;
57778;SDS011;43608;49.486;9.640;2024-02-21T01:39:02;7.28;;;3.60;;
57778;SDS011;43608;49.486;9.640;2024-02-21T01:39:32;5.97;;;3.28;;
57778;SDS011;43608;49.486;9.640;2024-02-21T01:40:03;5.18;;;3.20;;
57778;SDS011;43608;49.486;9.640;2024-02-21T01:40:34;5.85;;;2.97;;
57778;SDS011;43608;49.486;9.640;2024-02-21T01:41:04;5.20;;;3.15;;
57778;SDS011;43608;49.486;9.640;2024-02-21T01:41:35;4.72;;;2.65;;
57778;SDS011;43608;49.486;9.640;2024-02-21T01:42:05;7.38;;;3.10;;
57778;SDS011;43608;49.486;9.640;2024-02-21T01:42:39;5.70;;;3.08;;
57778;SDS011;43608;49.486;9.640;2024-02-21T01:43:15;3.92;;;2.80;;
57778;SDS011;43608;49.486;9.640;2024-02-21T01:43:47;5.97;;;3.00;;
57778;SDS011;43608;49.486;9.640;2024-02-21T01:44:18;5.47;;;3.05;;
57778;SDS011;43608;49.486;9.640;2024-02-21T01:44:48;5.95;;;3.10;;
57778;SDS011;43608;49.486;9.640;2024-02-21T01:45:18;7.05;;;3.33;;
57778;SDS011;43608;49.486;9.640;2024-02-21T01:45:49;6.15;;;3.10;;
57778;SDS011;43608;49.486;9.640;2024-02-21T01:46:22;6.13;;;3.15;;
57778;SDS011;43608;49.486;9.640;2024-02-21T01:46:52;6.10;;;3.10;;
57778;SDS011;43608;49.486;9.640;2024-02-21T01:47:23;6.10;;;3.10;;
57778;SDS011;43608;49.486;9.640;2024-02-21T01:47:54;4.55;;;2.90;;
57778;SDS011;43608;49.486;9.640;2024-02-21T01:48:24;6.93;;;3.15;;
57778;SDS011;43608;49.486;9.640;2024-02-21T01:48:55;5.38;;;3.25;;
57778;SDS011;43608;49.486;9.640;2024-02-21T01:49:27;6.25;;;2.60;;
57778;SDS011;43608;49.486;9.640;2024-02-21T01:49:57;6.10;;;2.75;;
57778;SDS011;43608;49.486;9.640;2024-02-21T01:50:28;6.13;;;3.17;;
57778;SDS011;43608;49.486;9.640;2024-02-21T01:50:59;5.90;;;3.05;;
57778;SDS011;43608;49.486;9.640;2024-02-21T01:51:30;5.85;;;3.35;;
57778;SDS011;43608;49.486;9.640;2024-02-21T01:52:01;5.93;;;3.42;;
57778;SDS011;43608;49.486;9.640;2024-02-21T01:52:33;7.63;;;3.22;;
57778;SDS011;43608;49.486;9.640;2024-02-21T01:53:04;6.97;;;3.38;;
57778;SDS011;43608;49.486;9.640;2024-02-21T01:53:36;7.60;;;3.53;;
57778;SDS011;43608;49.486;9.640;2024-02-21T01:54:13;5.22;;;3.35;;
57778;SDS011;43608;49.486;9.640;2024-02-21T01:54:46;5.85;;;3.10;;
57778;SDS011;43608;49.486;9.640;2024-02-21T01:55:17;5.72;;;3.00;;
57778;SDS011;43608;49.486;9.640;2024-02-21T01:55:47;6.10;;;3.22;;
57778;SDS011;43608;49.486;9.640;2024-02-21T01:56:17;5.53;;;3.30;;
57778;SDS011;43608;49.486;9.640;2024-02-21T01:56:48;5.35;;;3.10;;
57778;SDS011;43608;49.486;9.640;2024-02-21T01:57:19;5.18;;;3.20;;
57778;SDS011;43608;49.486;9.640;2024-02-21T01:57:49;6.57;;;2.97;;
57778;SDS011;43608;49.486;9.640;2024-02-21T01:58:20;6.80;;;3.30;;
57778;SDS011;43608;49.486;9.640;2024-02-21T01:58:51;7.25;;;3.22;;
57778;SDS011;43608;49.486;9.640;2024-02-21T01:59:21;4.00;;;2.90;;
57778;SDS011;43608;49.486;9.640;2024-02-21T01:59:52;5.60;;;3.00;;
57778;SDS011;43608;49.486;9.640;2024-02-21T02:00:23;6.40;;;2.92;;
57778;SDS011;43608;49.486;9.640;2024-02-21T02:00:54;5.75;;;3.25;;
57778;SDS011;43608;49.486;9.640;2024-02-21T02:01:26;5.60;;;2.92;;
57778;SDS011;43608;49.486;9.640;2024-02-21T02:01:58;4.95;;;2.90;;
57778;SDS011;43608;49.486;9.640;2024-02-21T02:02:28;6.70;;;3.22;;
57778;SDS011;43608;49.486;9.640;2024-02-21T02:02:59;5.85;;;3.40;;
57778;SDS011;43608;49.486;9.640;2024-02-21T02:03:30;5.72;;;3.10;;
57778;SDS011;43608;49.486;9.640;2024-02-21T02:04:01;5.35;;;3.15;;
57778;SDS011;43608;49.486;9.640;2024-02-21T02:04:32;5.50;;;3.05;;
57778;SDS011;43608;49.486;9.640;2024-02-21T02:05:02;5.97;;;3.25;;
57778;SDS011;43608;49.486;9.640;2024-02-21T02:05:34;5.13;;;2.95;;
57778;SDS011;43608;49.486;9.640;2024-02-21T02:06:05;5.43;;;2.92;;
57778;SDS011;43608;49.486;9.640;2024-02-21T02:06:39;4.53;;;2.85;;
57778;SDS011;43608;49.486;9.640;2024-02-21T02:07:11;4.55;;;2.90;;
57778;SDS011;43608;49.486;9.640;2024-02-21T02:07:41;5.60;;;3.17;;
57778;SDS011;43608;49.486;9.640;2024-02-21T02:08:12;8.13;;;3.53;;
57778;SDS011;43608;49.486;9.640;2024-02-21T02:08:43;8.32;;;3.42;;
57778;SDS011;43608;49.486;9.640;2024-02-21T02:09:14;6.50;;;3.58;;
57778;SDS011;43608;49.486;9.640;2024-02-21T02:09:44;8.05;;;3.60;;
57778;SDS011;43608;49.486;9.640;2024-02-21T02:10:15;6.22;;;3.42;;
57778;SDS011;43608;49.486;9.640;2024-02-21T02:10:45;7.53;;;3.60;;
57778;SDS011;43608;49.486;9.640;2024-02-21T02:11:16;7.82;;;3.47;;
57778;SDS011;43608;49.486;9.640;2024-02-21T02:11:47;6.28;;;3.72;;
57778;SDS011;43608;49.486;9.640;2024-02-21T02:12:17;5.45;;;3.15;;
57778;SDS011;43608;49.486;9.640;2024-02-21T02:12:47;6.05;;;3.20;;
57778;SDS011;43608;49.486;9.640;2024-02-21T02:13:18;5.13;;;3.40;;
57778;SDS011;43608;49.486;9.640;2024-02-21T02:13:48;7.72;;;3.78;;
57778;SDS011;43608;49.486;9.640;2024-02-21T02:14:18;8.05;;;3.30;;
57778;SDS011;43608;49.486;9.640;2024-02-21T02:14:59;7.15;;;3.60;;
57778;SDS011;43608;49.486;9.640;2024-02-21T02:15:42;6.35;;;3.17;;
57778;SDS011;43608;49.486;9.640;2024-02-21T02:16:16;6.20;;;3.40;;
57778;SDS011;43608;49.486;9.640;2024-02-21T02:16:47;6.85;;;3.28;;
57778;SDS011;43608;49.486;9.640;2024-02-21T02:17:17;6.65;;;3.30;;
57778;SDS011;43608;49.486;9.640;2024-02-21T02:17:49;6.60;;;3.20;;
57778;SDS011;43608;49.486;9.640;2024-02-21T02:18:19;6.95;;;3.47;;
57778;SDS011;43608;49.486;9.640;2024-02-21T02:18:50;6.32;;;3.53;;
57778;SDS011;43608;49.486;9.640;2024-02-21T02:19:20;7.05;;;3.33;;
57778;SDS011;43608;49.486;9.640;2024-02-21T02:19:50;5.93;;;3.20;;
57778;SDS011;43608;49.486;9.640;2024-02-21T02:20:21;5.38;;;3.20;;
57778;SDS011;43608;49.486;9.640;2024-02-21T02:20:51;5.03;;;3.20;;
57778;SDS011;43608;49.486;9.640;2024-02-21T02:21:26;4.93;;;2.83;;
57778;SDS011;43608;49.486;9.640;2024-02-21T02:22:00;5.82;;;3.00;;
57778;SDS011;43608;49.486;9.640;2024-02-21T02:22:39;6.38;;;3.20;;
57778;SDS011;43608;49.486;9.640;2024-02-21T02:23:44;5.22;;;3.50;;
57778;SDS011;43608;49.486;9.640;2024-02-21T02:24:14;6.18;;;3.15;;
57778;SDS011;43608;49.486;9.640;2024-02-21T02:24:45;4.72;;;3.10;;
57778;SDS011;43608;49.486;9.640;2024-02-21T02:25:16;6.40;;;3.20;;
57778;SDS011;43608;49.486;9.640;2024-02-21T02:25:46;6.93;;;2.90;;
57778;SDS011;43608;49.486;9.640;2024-02-21T02:26:22;6.47;;;3.22;;
57778;SDS011;43608;49.486;9.640;2024-02-21T02:26:52;6.78;;;2.95;;
57778;SDS011;43608;49.486;9.640;2024-02-21T02:27:22;6.68;;;3.40;;
57778;SDS011;43608;49.486;9.640;2024-02-21T02:27:53;5.75;;;3.08;;
57778;SDS011;43608;49.486;9.640;2024-02-21T02:28:24;4.85;;;2.90;;
57778;SDS011;43608;49.486;9.640;2024-02-21T02:28:54;4.88;;;3.08;;
57778;SDS011;43608;49.486;9.640;2024-02-21T02:29:25;6.60;;;3.20;;
57778;SDS011;43608;49.486;9.640;2024-02-21T02:29:55;4.93;;;3.00;;
57778;SDS011;43608;49.486;9.640;2024-02-21T02:30:25;4.50;;;3.00;;
57778;SDS011;43608;49.486;9.640;2024-02-21T02:30:56;6.93;;;3.17;;
57778;SDS011;43608;49.486;9.640;2024-02-21T02:31:26;6.55;;;3.15;;
57778;SDS011;43608;49.486;9.640;2024-02-21T02:31:56;4.97;;;3.03;;
57778;SDS011;43608;49.486;9.640;2024-02-21T02:32:27;5.20;;;3.20;;
57778;SDS011;43608;49.486;9.640;2024-02-21T02:32:57;6.18;;;3.45;;
57778;SDS011;43608;49.486;9.640;2024-02-21T02:33:27;7.25;;;3.35;;
57778;SDS011;43608;49.486;9.640;2024-02-21T02:33:58;5.70;;;3.20;;
57778;SDS011;43608;49.486;9.640;2024-02-21T02:34:28;5.28;;;2.95;;
57778;SDS011;43608;49.486;9.640;2024-02-21T02:34:58;4.93;;;3.13;;
57778;SDS011;43608;49.486;9.640;2024-02-21T02:35:29;5.75;;;3.20;;
57778;SDS011;43608;49.486;9.640;2024-02-21T02:35:59;6.97;;;3.47;;
57778;SDS011;43608;49.486;9.640;2024-02-21T02:36:32;5.15;;;3.10;;
57778;SDS011;43608;49.486;9.640;2024-02-21T02:37:03;5.85;;;3.17;;
57778;SDS011;43608;49.486;9.640;2024-02-21T02:37:34;6.97;;;3.30;;
57778;SDS011;43608;49.486;9.640;2024-02-21T02:38:04;6.45;;;2.95;;
57778;SDS011;43608;49.486;9.640;2024-02-21T02:38:34;5.47;;;2.90;;
57778;SDS011;43608;49.486;9.640;2024-02-21T02:39:05;5.07;;;2.83;;
57778;SDS011;43608;49.486;9.640;2024-02-21T02:39:35;5.88;;;3.17;;
57778;SDS011;43608;49.486;9.640;2024-02-21T02:40:06;4.75;;;2.78;;
57778;SDS011;43608;49.486;9.640;2024-02-21T02:40:38;6.40;;;3.20;;
57778;SDS011;43608;49.486;9.640;2024-02-21T02:41:09;4.78;;;2.70;;
57778;SDS011;43608;49.486;9.640;2024-02-21T02:41:39;5.38;;;3.13;;
57778;SDS011;43608;49.486;9.640;2024-02-21T02:42:10;4.55;;;2.83;;
57778;SDS011;43608;49.486;9.640;2024-02-21T02:42:40;4.80;;;2.83;;
57778;SDS011;43608;49.486;9.640;2024-02-21T02:43:10;5.18;;;3.00;;
57778;SDS011;43608;49.486;9.640;2024-02-21T02:43:41;6.32;;;3.05;;
57778;SDS011;43608;49.486;9.640;2024-02-21T02:44:11;5.60;;;3.20;;
57778;SDS011;43608;49.486;9.640;2024-02-21T02:44:41;6.10;;;2.88;;
57778;SDS011;43608;49.486;9.640;2024-02-21T02:45:12;6.75;;;3.35;;
57778;SDS011;43608;49.486;9.640;2024-02-21T02:45:42;5.72;;;3.13;;
57778;SDS011;43608;49.486;9.640;2024-02-21T02:46:13;6.93;;;3.22;;
57778;SDS011;43608;49.486;9.640;2024-02-21T02:46:43;7.93;;;3.60;;
57778;SDS011;43608;49.486;9.640;2024-02-21T02:47:13;6.60;;;3.03;;
57778;SDS011;43608;49.486;9.640;2024-02-21T02:47:44;6.97;;;3.40;;
57778;SDS011;43608;49.486;9.640;2024-02-21T02:48:16;6.57;;;3.20;;
57778;SDS011;43608;49.486;9.640;2024-02-21T02:48:46;4.32;;;2.75;;
57778;SDS011;43608;49.486;9.640;2024-02-21T02:49:16;7.50;;;3.53;;
57778;SDS011;43608;49.486;9.640;2024-02-21T02:49:47;5.50;;;3.28;;
57778;SDS011;43608;49.486;9.640;2024-02-21T02:50:20;9.10;;;3.53;;
57778;SDS011;43608;49.486;9.640;2024-02-21T02:50:51;7.90;;;3.42;;
57778;SDS011;43608;49.486;9.640;2024-02-21T02:51:21;4.88;;;3.22;;
57778;SDS011;43608;49.486;9.640;2024-02-21T02:51:51;6.18;;;3.30;;
57778;SDS011;43608;49.486;9.640;2024-02-21T02:52:22;5.10;;;3.20;;
57778;SDS011;43608;49.486;9.640;2024-02-21T02:52:52;6.50;;;3.72;;
57778;SDS011;43608;49.486;9.640;2024-02-21T02:53:26;5.80;;;3.22;;
57778;SDS011;43608;49.486;9.640;2024-02-21T02:53:57;5.93;;;3.20;;
57778;SDS011;43608;49.486;9.640;2024-02-21T02:54:27;6.13;;;3.42;;
57778;SDS011;43608;49.486;9.640;2024-02-21T02:54:58;6.50;;;3.42;;
57778;SDS011;43608;49.486;9.640;2024-02-21T02:55:28;5.70;;;3.50;;
57778;SDS011;43608;49.486;9.640;2024-02-21T02:55:59;6.03;;;3.38;;
57778;SDS011;43608;49.486;9.640;2024-02-21T02:56:29;7.80;;;3.40;;
57778;SDS011;43608;49.486;9.640;2024-02-21T02:56:59;6.03;;;3.58;;
57778;SDS011;43608;49.486;9.640;2024-02-21T02:57:30;7.28;;;3.88;;
57778;SDS011;43608;49.486;9.640;2024-02-21T02:58:00;5.97;;;3.38;;
57778;SDS011;43608;49.486;9.640;2024-02-21T02:58:30;6.82;;;3.35;;
57778;SDS011;43608;49.486;9.640;2024-02-21T02:59:01;7.10;;;3.65;;
57778;SDS011;43608;49.486;9.640;2024-02-21T02:59:31;6.43;;;3.45;;
57778;SDS011;43608;49.486;9.640;2024-02-21T03:00:02;8.23;;;3.53;;
57778;SDS011;43608;49.486;9.640;2024-02-21T03:00:33;5.85;;;3.40;;
57778;SDS011;43608;49.486;9.640;2024-02-21T03:01:06;6.68;;;3.38;;
57778;SDS011;43608;49.486;9.640;2024-02-21T03:01:37;5.72;;;3.13;;
57778;SDS011;43608;49.486;9.640;2024-02-21T03:02:08;6.50;;;3.28;;
57778;SDS011;43608;49.486;9.640;2024-02-21T03:02:39;4.75;;;3.00;;
57778;SDS011;43608;49.486;9.640;2024-02-21T03:03:10;5.03;;;2.90;;
57778;SDS011;43608;49.486;9.640;2024-02-21T03:03:40;6.75;;;3.10;;
57778;SDS011;43608;49.486;9.640;2024-02-21T03:04:11;4.90;;;3.17;;
57778;SDS011;43608;49.486;9.640;2024-02-21T03:04:41;6.53;;;3.40;;
57778;SDS011;43608;49.486;9.640;2024-02-21T03:05:21;6.32;;;3.30;;
57778;SDS011;43608;49.486;9.640;2024-02-21T03:05:51;7.90;;;3.38;;
57778;SDS011;43608;49.486;9.640;2024-02-21T03:06:22;4.68;;;3.00;;